Snowville, Virginia
Current Conditions -  °F | °C
As of 9:55 PM on Tuesday 21 Oct 2014 (Local Time) from KPSK Reporting Station
Light Rain Light Rain  
Wind Chill: 42°   Ceiling: 2500
Heat Index: 48°   Visibility: 10mi
Dew Point: 42°   Wind: 14mph
Humidity: 79%   Direction: 310°NW
Pressure: 30.03"   Gusts: 18mph
Location:  37.0726°N, 80.7961°W
Report Text: KPSK 220155Z AUTO 31012G16KT 10SM -RA OVC025 09/05 A3003 RMK AO2 T00880054
Loading
Personal Weather Stations






























Interactive Weather Map
Tropical Storm Tracking
New forecast layout! Learn more

10-Day Weather Forecast

Advertisements
Track Severe Weather on mobile